Stove Pipe Wells, California
Current Conditions -  °F | °C
As of 1:56 AM on Saturday 22 Nov 2014 (Local Time) from KNID Reporting Station
Clear Clear  
Wind Chill: 42°   Ceiling: Unl
Heat Index: 44°   Visibility: 10mi
Dew Point: 32°   Wind: 5mph
Humidity: 63%   Direction: 250°WSW
Pressure: 30.07"   Gusts: NA
Location:  36.3785°N, 117.161°W
Report Text: KNID 220956Z AUTO 25004KT 10SM CLR 07/00 A3007 RMK AO2 SLP182 T00670000 $
Loading
Personal Weather Stations






























Interactive Weather Map New forecast layout! Learn more

10-Day Weather Forecast

Advertisements
Track Severe Weather on mobile